sensor_id;sensor_type;location;lat;lon;timestamp;P1;P2;P0
77354;PMS7003;66422;51.202;19.936;2023-05-02T00:12:28;18.00;12.00;10.00
77354;PMS7003;66422;51.202;19.936;2023-05-02T00:27:48;18.67;11.33;8.67
77354;PMS7003;66422;51.202;19.936;2023-05-02T00:43:09;14.33;11.00;7.67
77354;PMS7003;66422;51.202;19.936;2023-05-02T00:58:28;11.33;10.00;7.00
77354;PMS7003;66422;51.202;19.936;2023-05-02T01:13:49;14.50;12.00;10.00
77354;PMS7003;66422;51.202;19.936;2023-05-02T01:29:11;15.00;11.67;10.33
77354;PMS7003;66422;51.202;19.936;2023-05-02T01:44:34;14.67;14.33;10.67
77354;PMS7003;66422;51.202;19.936;2023-05-02T01:59:55;19.50;15.50;13.00
77354;PMS7003;66422;51.202;19.936;2023-05-02T02:15:20;25.33;20.00;15.67
77354;PMS7003;66422;51.202;19.936;2023-05-02T02:30:43;13.00;12.50;9.00
77354;PMS7003;66422;51.202;19.936;2023-05-02T03:02:19;11.00;7.00;3.00
77354;PMS7003;66422;51.202;19.936;2023-05-02T03:17:47;19.00;14.00;10.00
77354;PMS7003;66422;51.202;19.936;2023-05-02T03:33:06;9.00;4.00;4.00
77354;PMS7003;66422;51.202;19.936;2023-05-02T03:48:27;16.00;15.00;11.00
77354;PMS7003;66422;51.202;19.936;2023-05-02T04:03:48;17.50;13.00;10.50
77354;PMS7003;66422;51.202;19.936;2023-05-02T04:19:09;19.00;14.00;8.00
77354;PMS7003;66422;51.202;19.936;2023-05-02T04:34:31;17.00;13.00;11.00
77354;PMS7003;66422;51.202;19.936;2023-05-02T04:49:51;19.00;14.00;10.00
77354;PMS7003;66422;51.202;19.936;2023-05-02T05:05:11;18.33;16.33;11.33
77354;PMS7003;66422;51.202;19.936;2023-05-02T05:20:30;14.75;14.25;11.00
77354;PMS7003;66422;51.202;19.936;2023-05-02T05:35:52;22.00;14.00;12.00
77354;PMS7003;66422;51.202;19.936;2023-05-02T05:51:12;14.00;11.00;10.00
77354;PMS7003;66422;51.202;19.936;2023-05-02T06:06:32;21.00;19.00;15.50
77354;PMS7003;66422;51.202;19.936;2023-05-02T06:21:52;10.00;9.00;7.00
77354;PMS7003;66422;51.202;19.936;2023-05-02T06:37:12;8.00;7.50;7.00
77354;PMS7003;66422;51.202;19.936;2023-05-02T06:52:32;11.50;9.00;7.00
77354;PMS7003;66422;51.202;19.936;2023-05-02T07:07:52;10.50;8.00;6.50
77354;PMS7003;66422;51.202;19.936;2023-05-02T07:23:11;13.00;11.00;8.00
77354;PMS7003;66422;51.202;19.936;2023-05-02T07:38:30;13.00;8.50;7.00
77354;PMS7003;66422;51.202;19.936;2023-05-02T07:53:50;8.50;7.50;7.00
77354;PMS7003;66422;51.202;19.936;2023-05-02T08:09:14;9.50;8.00;6.00
77354;PMS7003;66422;51.202;19.936;2023-05-02T08:24:33;11.33;8.00;6.67
77354;PMS7003;66422;51.202;19.936;2023-05-02T09:48:05;20.75;16.25;11.50
77354;PMS7003;66422;51.202;19.936;2023-05-02T10:03:25;16.00;14.00;12.00
77354;PMS7003;66422;51.202;19.936;2023-05-02T10:34:18;12.00;10.00;9.00
77354;PMS7003;66422;51.202;19.936;2023-05-02T10:49:48;17.00;14.00;11.00
77354;PMS7003;66422;51.202;19.936;2023-05-02T11:05:12;11.00;10.00;8.00
77354;PMS7003;66422;51.202;19.936;2023-05-02T11:20:36;16.00;13.00;10.00
77354;PMS7003;66422;51.202;19.936;2023-05-02T11:36:00;12.33;9.00;8.00
77354;PMS7003;66422;51.202;19.936;2023-05-02T11:51:23;10.00;8.75;7.25
77354;PMS7003;66422;51.202;19.936;2023-05-02T12:06:58;12.00;11.67;9.33
77354;PMS7003;66422;51.202;19.936;2023-05-02T12:22:17;13.00;10.00;8.50
77354;PMS7003;66422;51.202;19.936;2023-05-02T12:37:37;13.00;13.00;9.00
77354;PMS7003;66422;51.202;19.936;2023-05-02T12:52:57;12.00;10.50;8.50
77354;PMS7003;66422;51.202;19.936;2023-05-02T13:08:18;16.00;15.00;11.00
77354;PMS7003;66422;51.202;19.936;2023-05-02T13:23:38;10.67;9.67;8.00
77354;PMS7003;66422;51.202;19.936;2023-05-02T13:38:59;11.00;9.25;8.00
77354;PMS7003;66422;51.202;19.936;2023-05-02T13:54:20;13.50;11.50;9.00
77354;PMS7003;66422;51.202;19.936;2023-05-02T14:09:39;12.00;11.00;10.00
77354;PMS7003;66422;51.202;19.936;2023-05-02T14:24:59;17.67;12.00;10.00
77354;PMS7003;66422;51.202;19.936;2023-05-02T14:40:18;20.00;15.00;12.00
77354;PMS7003;66422;51.202;19.936;2023-05-02T14:55:38;13.67;12.67;10.67
77354;PMS7003;66422;51.202;19.936;2023-05-02T15:10:59;21.00;17.00;12.00
77354;PMS7003;66422;51.202;19.936;2023-05-02T15:26:19;22.00;17.00;13.50
77354;PMS7003;66422;51.202;19.936;2023-05-02T15:41:39;17.00;13.00;11.00
77354;PMS7003;66422;51.202;19.936;2023-05-02T15:57:00;22.00;21.00;17.00
77354;PMS7003;66422;51.202;19.936;2023-05-02T16:12:20;21.50;20.50;15.50
77354;PMS7003;66422;51.202;19.936;2023-05-02T16:27:40;46.00;34.00;22.00
77354;PMS7003;66422;51.202;19.936;2023-05-02T16:43:00;26.00;21.67;14.00
77354;PMS7003;66422;51.202;19.936;2023-05-02T16:58:20;22.25;18.25;13.75
77354;PMS7003;66422;51.202;19.936;2023-05-02T17:13:40;20.00;20.00;15.00
77354;PMS7003;66422;51.202;19.936;2023-05-02T17:29:00;23.50;20.50;18.00
77354;PMS7003;66422;51.202;19.936;2023-05-02T17:44:20;33.00;24.00;18.00
77354;PMS7003;66422;51.202;19.936;2023-05-02T17:59:40;23.50;19.25;14.75
77354;PMS7003;66422;51.202;19.936;2023-05-02T18:15:00;24.00;23.00;17.00
77354;PMS7003;66422;51.202;19.936;2023-05-02T18:30:22;27.50;22.50;17.75
77354;PMS7003;66422;51.202;19.936;2023-05-02T18:45:42;29.25;24.75;18.75
77354;PMS7003;66422;51.202;19.936;2023-05-02T19:01:09;30.33;27.00;20.00
77354;PMS7003;66422;51.202;19.936;2023-05-02T19:16:33;20.50;20.50;15.00
77354;PMS7003;66422;51.202;19.936;2023-05-02T19:31:58;23.00;21.00;18.00
77354;PMS7003;66422;51.202;19.936;2023-05-02T19:47:18;21.75;20.25;15.00
77354;PMS7003;66422;51.202;19.936;2023-05-02T20:02:37;26.00;26.00;20.75
77354;PMS7003;66422;51.202;19.936;2023-05-02T20:17:57;29.00;23.00;19.00
77354;PMS7003;66422;51.202;19.936;2023-05-02T20:33:17;30.00;27.00;20.00
77354;PMS7003;66422;51.202;19.936;2023-05-02T20:48:37;25.00;25.00;18.00
77354;PMS7003;66422;51.202;19.936;2023-05-02T21:03:57;24.50;24.00;18.00
77354;PMS7003;66422;51.202;19.936;2023-05-02T21:19:16;26.00;21.67;17.67
77354;PMS7003;66422;51.202;19.936;2023-05-02T21:34:36;28.00;26.00;18.67
77354;PMS7003;66422;51.202;19.936;2023-05-02T21:49:56;32.00;30.00;21.00
77354;PMS7003;66422;51.202;19.936;2023-05-02T22:05:16;37.00;30.00;22.00
77354;PMS7003;66422;51.202;19.936;2023-05-02T22:20:35;31.00;28.00;18.00
77354;PMS7003;66422;51.202;19.936;2023-05-02T22:35:56;34.00;29.25;21.75
77354;PMS7003;66422;51.202;19.936;2023-05-02T22:51:16;37.50;34.00;22.25
77354;PMS7003;66422;51.202;19.936;2023-05-02T23:06:36;31.00;29.00;22.00
77354;PMS7003;66422;51.202;19.936;2023-05-02T23:21:56;43.75;34.50;22.00
77354;PMS7003;66422;51.202;19.936;2023-05-02T23:37:16;40.50;36.50;25.50
77354;PMS7003;66422;51.202;19.936;2023-05-02T23:52:36;42.33;35.33;24.00
